sensor_id;sensor_type;location;lat;lon;timestamp;temperature;humidity
30467;DHT22;17258;52.560;13.046;2023-06-05T00:00:23;18.50;30.90
30467;DHT22;17258;52.560;13.046;2023-06-05T00:10:27;18.40;31.10
30467;DHT22;17258;52.560;13.046;2023-06-05T00:20:28;18.20;31.20
30467;DHT22;17258;52.560;13.046;2023-06-05T00:30:28;18.10;31.40
30467;DHT22;17258;52.560;13.046;2023-06-05T00:40:29;17.90;31.60
30467;DHT22;17258;52.560;13.046;2023-06-05T00:50:31;17.80;31.80
30467;DHT22;17258;52.560;13.046;2023-06-05T01:00:32;17.70;32.00
30467;DHT22;17258;52.560;13.046;2023-06-05T01:10:34;17.60;32.10
30467;DHT22;17258;52.560;13.046;2023-06-05T01:20:39;17.50;32.20
30467;DHT22;17258;52.560;13.046;2023-06-05T01:30:48;17.40;32.50
30467;DHT22;17258;52.560;13.046;2023-06-05T01:41:07;17.40;32.80
30467;DHT22;17258;52.560;13.046;2023-06-05T01:51:08;17.30;32.50
30467;DHT22;17258;52.560;13.046;2023-06-05T02:01:12;17.20;32.70
30467;DHT22;17258;52.560;13.046;2023-06-05T02:11:14;17.00;32.80
30467;DHT22;17258;52.560;13.046;2023-06-05T02:21:17;16.90;33.60
30467;DHT22;17258;52.560;13.046;2023-06-05T02:31:18;16.80;33.30
30467;DHT22;17258;52.560;13.046;2023-06-05T02:41:20;16.60;33.20
30467;DHT22;17258;52.560;13.046;2023-06-05T02:51:21;16.50;33.40
30467;DHT22;17258;52.560;13.046;2023-06-05T03:01:22;16.40;33.50
30467;DHT22;17258;52.560;13.046;2023-06-05T03:11:25;16.30;33.70
30467;DHT22;17258;52.560;13.046;2023-06-05T03:21:26;16.20;34.00
30467;DHT22;17258;52.560;13.046;2023-06-05T03:31:27;16.10;34.20
30467;DHT22;17258;52.560;13.046;2023-06-05T03:41:31;16.00;34.30
30467;DHT22;17258;52.560;13.046;2023-06-05T03:51:32;16.00;34.50
30467;DHT22;17258;52.560;13.046;2023-06-05T04:01:33;15.90;34.70
30467;DHT22;17258;52.560;13.046;2023-06-05T04:11:35;15.90;35.00
30467;DHT22;17258;52.560;13.046;2023-06-05T04:21:41;15.90;35.20
30467;DHT22;17258;52.560;13.046;2023-06-05T04:31:45;16.00;35.60
30467;DHT22;17258;52.560;13.046;2023-06-05T04:41:46;16.10;35.70
30467;DHT22;17258;52.560;13.046;2023-06-05T04:51:49;16.20;36.00
30467;DHT22;17258;52.560;13.046;2023-06-05T05:01:52;16.40;36.20
30467;DHT22;17258;52.560;13.046;2023-06-05T05:11:58;16.60;36.50
30467;DHT22;17258;52.560;13.046;2023-06-05T05:21:58;17.00;36.70
30467;DHT22;17258;52.560;13.046;2023-06-05T05:32:07;17.40;36.80
30467;DHT22;17258;52.560;13.046;2023-06-05T05:42:13;17.90;36.90
30467;DHT22;17258;52.560;13.046;2023-06-05T05:52:20;18.30;36.80
30467;DHT22;17258;52.560;13.046;2023-06-05T06:02:22;18.80;36.80
30467;DHT22;17258;52.560;13.046;2023-06-05T06:12:23;19.30;36.70
30467;DHT22;17258;52.560;13.046;2023-06-05T06:22:24;19.80;36.70
30467;DHT22;17258;52.560;13.046;2023-06-05T06:32:27;20.40;36.70
30467;DHT22;17258;52.560;13.046;2023-06-05T06:42:30;21.00;36.60
30467;DHT22;17258;52.560;13.046;2023-06-05T06:52:30;21.50;36.40
30467;DHT22;17258;52.560;13.046;2023-06-05T07:02:31;22.10;36.20
30467;DHT22;17258;52.560;13.046;2023-06-05T07:12:32;22.80;36.00
30467;DHT22;17258;52.560;13.046;2023-06-05T07:22:35;23.40;35.60
30467;DHT22;17258;52.560;13.046;2023-06-05T07:32:36;24.00;35.10
30467;DHT22;17258;52.560;13.046;2023-06-05T07:42:37;24.50;34.90
30467;DHT22;17258;52.560;13.046;2023-06-05T07:52:46;25.10;34.40
30467;DHT22;17258;52.560;13.046;2023-06-05T08:02:50;25.70;33.90
30467;DHT22;17258;52.560;13.046;2023-06-05T08:12:56;26.20;33.70
30467;DHT22;17258;52.560;13.046;2023-06-05T08:23:03;26.80;33.20
30467;DHT22;17258;52.560;13.046;2023-06-05T08:33:07;27.20;32.30
30467;DHT22;17258;52.560;13.046;2023-06-05T08:43:08;27.50;31.90
30467;DHT22;17258;52.560;13.046;2023-06-05T08:53:11;27.70;31.60
30467;DHT22;17258;52.560;13.046;2023-06-05T09:03:16;27.80;31.10
30467;DHT22;17258;52.560;13.046;2023-06-05T09:13:22;27.90;30.90
30467;DHT22;17258;52.560;13.046;2023-06-05T09:23:28;28.00;30.60
30467;DHT22;17258;52.560;13.046;2023-06-05T09:33:33;28.10;30.00
30467;DHT22;17258;52.560;13.046;2023-06-05T09:43:38;28.20;29.90
30467;DHT22;17258;52.560;13.046;2023-06-05T09:53:49;28.20;29.90
30467;DHT22;17258;52.560;13.046;2023-06-05T10:03:58;28.30;29.60
30467;DHT22;17258;52.560;13.046;2023-06-05T10:14:05;28.40;29.30
30467;DHT22;17258;52.560;13.046;2023-06-05T10:24:11;28.60;29.50
30467;DHT22;17258;52.560;13.046;2023-06-05T10:44:42;29.50;28.90
30467;DHT22;17258;52.560;13.046;2023-06-05T11:15:02;30.80;28.40
30467;DHT22;17258;52.560;13.046;2023-06-05T11:35:21;32.00;27.70
30467;DHT22;17258;52.560;13.046;2023-06-05T11:45:22;32.60;27.80
30467;DHT22;17258;52.560;13.046;2023-06-05T11:55:27;33.10;27.50
30467;DHT22;17258;52.560;13.046;2023-06-05T12:05:43;33.50;27.00
30467;DHT22;17258;52.560;13.046;2023-06-05T12:15:56;33.80;26.70
30467;DHT22;17258;52.560;13.046;2023-06-05T12:26:03;34.00;25.90
30467;DHT22;17258;52.560;13.046;2023-06-05T12:36:10;34.20;26.20
30467;DHT22;17258;52.560;13.046;2023-06-05T12:46:11;34.50;26.10
30467;DHT22;17258;52.560;13.046;2023-06-05T12:56:16;34.80;26.00
30467;DHT22;17258;52.560;13.046;2023-06-05T13:06:29;35.10;25.80
30467;DHT22;17258;52.560;13.046;2023-06-05T13:16:34;35.30;25.40
30467;DHT22;17258;52.560;13.046;2023-06-05T13:26:35;35.50;25.40
30467;DHT22;17258;52.560;13.046;2023-06-05T13:36:35;35.80;25.00
30467;DHT22;17258;52.560;13.046;2023-06-05T13:46:44;36.00;24.80
30467;DHT22;17258;52.560;13.046;2023-06-05T13:56:51;36.00;24.40
30467;DHT22;17258;52.560;13.046;2023-06-05T14:06:52;36.00;24.30
30467;DHT22;17258;52.560;13.046;2023-06-05T14:16:58;36.00;24.10
30467;DHT22;17258;52.560;13.046;2023-06-05T14:27:07;36.10;24.20
30467;DHT22;17258;52.560;13.046;2023-06-05T14:37:10;36.30;24.10
30467;DHT22;17258;52.560;13.046;2023-06-05T14:47:13;36.50;23.80
30467;DHT22;17258;52.560;13.046;2023-06-05T14:57:17;36.60;23.50
30467;DHT22;17258;52.560;13.046;2023-06-05T15:07:23;36.50;23.40
30467;DHT22;17258;52.560;13.046;2023-06-05T15:17:30;36.50;23.30
30467;DHT22;17258;52.560;13.046;2023-06-05T15:27:31;36.60;22.90
30467;DHT22;17258;52.560;13.046;2023-06-05T15:37:31;36.50;22.90
30467;DHT22;17258;52.560;13.046;2023-06-05T15:47:35;36.50;23.00
30467;DHT22;17258;52.560;13.046;2023-06-05T15:57:39;36.50;22.80
30467;DHT22;17258;52.560;13.046;2023-06-05T16:07:41;36.40;22.70
30467;DHT22;17258;52.560;13.046;2023-06-05T16:17:44;36.10;22.40
30467;DHT22;17258;52.560;13.046;2023-06-05T16:27:54;35.80;22.60
30467;DHT22;17258;52.560;13.046;2023-06-05T16:38:00;35.40;22.60
30467;DHT22;17258;52.560;13.046;2023-06-05T16:48:03;35.10;22.50
30467;DHT22;17258;52.560;13.046;2023-06-05T16:58:06;34.70;22.40
30467;DHT22;17258;52.560;13.046;2023-06-05T17:08:10;34.20;22.50
30467;DHT22;17258;52.560;13.046;2023-06-05T17:18:14;33.90;22.80
30467;DHT22;17258;52.560;13.046;2023-06-05T17:28:21;33.70;22.90
30467;DHT22;17258;52.560;13.046;2023-06-05T17:38:22;33.50;22.80
30467;DHT22;17258;52.560;13.046;2023-06-05T17:48:26;33.30;22.80
30467;DHT22;17258;52.560;13.046;2023-06-05T17:58:29;33.30;22.90
30467;DHT22;17258;52.560;13.046;2023-06-05T18:08:30;33.00;23.20
30467;DHT22;17258;52.560;13.046;2023-06-05T18:18:33;32.80;23.10
30467;DHT22;17258;52.560;13.046;2023-06-05T18:28:34;32.60;23.40
30467;DHT22;17258;52.560;13.046;2023-06-05T18:38:38;32.30;23.40
30467;DHT22;17258;52.560;13.046;2023-06-05T18:48:40;31.90;23.70
30467;DHT22;17258;52.560;13.046;2023-06-05T18:58:41;31.50;23.90
30467;DHT22;17258;52.560;13.046;2023-06-05T19:08:43;31.10;24.10
30467;DHT22;17258;52.560;13.046;2023-06-05T19:18:44;30.80;24.40
30467;DHT22;17258;52.560;13.046;2023-06-05T19:28:44;30.30;24.40
30467;DHT22;17258;52.560;13.046;2023-06-05T19:38:48;29.80;24.60
30467;DHT22;17258;52.560;13.046;2023-06-05T19:48:49;29.40;24.90
30467;DHT22;17258;52.560;13.046;2023-06-05T19:58:50;28.90;25.00
30467;DHT22;17258;52.560;13.046;2023-06-05T20:08:51;28.50;25.20
30467;DHT22;17258;52.560;13.046;2023-06-05T20:18:51;28.00;25.40
30467;DHT22;17258;52.560;13.046;2023-06-05T20:28:52;27.50;25.70
30467;DHT22;17258;52.560;13.046;2023-06-05T20:38:56;27.10;26.00
30467;DHT22;17258;52.560;13.046;2023-06-05T20:48:57;26.60;26.10
30467;DHT22;17258;52.560;13.046;2023-06-05T20:59:00;26.20;26.40
30467;DHT22;17258;52.560;13.046;2023-06-05T21:09:01;25.80;26.70
30467;DHT22;17258;52.560;13.046;2023-06-05T21:19:02;25.40;26.80
30467;DHT22;17258;52.560;13.046;2023-06-05T21:29:03;25.10;27.00
30467;DHT22;17258;52.560;13.046;2023-06-05T21:39:04;24.70;27.10
30467;DHT22;17258;52.560;13.046;2023-06-05T21:49:05;24.40;27.30
30467;DHT22;17258;52.560;13.046;2023-06-05T21:59:05;24.20;27.60
30467;DHT22;17258;52.560;13.046;2023-06-05T22:09:07;23.90;27.90
30467;DHT22;17258;52.560;13.046;2023-06-05T22:19:09;23.80;28.20
30467;DHT22;17258;52.560;13.046;2023-06-05T22:29:13;23.70;28.40
30467;DHT22;17258;52.560;13.046;2023-06-05T22:39:14;23.60;28.60
30467;DHT22;17258;52.560;13.046;2023-06-05T22:49:14;23.50;28.80
30467;DHT22;17258;52.560;13.046;2023-06-05T22:59:18;23.40;29.00
30467;DHT22;17258;52.560;13.046;2023-06-05T23:09:19;23.30;29.20
30467;DHT22;17258;52.560;13.046;2023-06-05T23:19:23;23.30;29.30
30467;DHT22;17258;52.560;13.046;2023-06-05T23:29:30;23.20;29.70
30467;DHT22;17258;52.560;13.046;2023-06-05T23:39:34;23.00;29.80
30467;DHT22;17258;52.560;13.046;2023-06-05T23:49:34;22.80;29.70
30467;DHT22;17258;52.560;13.046;2023-06-05T23:59:36;22.60;29.90
